createdAt,value
2018-12-31T00:00:17.977Z,59.46
2018-12-31T00:00:49.126Z,59.52
2018-12-31T00:01:20.272Z,59.60
2018-12-31T00:01:51.418Z,59.51
2018-12-31T00:02:22.610Z,59.58
2018-12-31T00:02:53.761Z,59.58
2018-12-31T00:03:24.918Z,59.63
2018-12-31T00:03:56.113Z,59.59
2018-12-31T00:04:27.289Z,59.62
2018-12-31T00:04:58.411Z,59.67
2018-12-31T00:05:29.570Z,59.60
2018-12-31T00:06:00.790Z,59.54
2018-12-31T00:06:31.981Z,59.67
2018-12-31T00:07:03.138Z,59.69
2018-12-31T00:07:34.352Z,59.72
2018-12-31T00:08:05.518Z,59.67
2018-12-31T00:08:36.665Z,59.85
2018-12-31T00:09:07.824Z,59.86
2018-12-31T00:09:39.008Z,59.86
2018-12-31T00:10:10.159Z,59.96
2018-12-31T00:10:41.354Z,59.66
2018-12-31T00:11:12.507Z,59.60
2018-12-31T00:11:43.658Z,59.58
2018-12-31T00:12:14.807Z,59.71
2018-12-31T00:12:45.959Z,59.74
2018-12-31T00:13:17.115Z,59.68
2018-12-31T00:13:48.252Z,59.47
2018-12-31T00:14:19.405Z,59.48
2018-12-31T00:14:50.557Z,59.38
2018-12-31T00:15:21.761Z,59.39
2018-12-31T00:15:52.916Z,59.34
2018-12-31T00:16:24.059Z,59.33
2018-12-31T00:16:55.214Z,59.24
2018-12-31T00:17:26.366Z,59.16
2018-12-31T00:17:57.541Z,59.14
2018-12-31T00:18:28.694Z,59.19
2018-12-31T00:18:59.851Z,59.23
2018-12-31T00:19:31.023Z,59.14
2018-12-31T00:20:03.135Z,59.18
2018-12-31T00:20:34.333Z,59.21
2018-12-31T00:21:05.488Z,59.18
2018-12-31T00:21:36.644Z,59.22
2018-12-31T00:22:07.800Z,59.29
2018-12-31T00:22:38.956Z,59.39
2018-12-31T00:23:10.111Z,59.42
2018-12-31T00:23:41.262Z,59.55
2018-12-31T00:24:12.432Z,59.67
2018-12-31T00:24:43.586Z,59.76
2018-12-31T00:25:14.767Z,59.70
2018-12-31T00:25:45.932Z,59.81
2018-12-31T00:26:17.084Z,59.74
2018-12-31T00:26:48.245Z,59.83
2018-12-31T00:27:19.392Z,59.83
2018-12-31T00:27:50.538Z,59.85
2018-12-31T00:28:21.698Z,59.99
2018-12-31T00:28:52.969Z,60.03
2018-12-31T00:29:24.126Z,59.99
2018-12-31T00:29:55.268Z,59.90
2018-12-31T00:30:26.419Z,59.91
2018-12-31T00:30:57.610Z,59.93
2018-12-31T00:31:28.764Z,60.00
2018-12-31T00:31:59.919Z,59.94
2018-12-31T00:32:31.079Z,59.90
2018-12-31T00:33:02.230Z,59.89
2018-12-31T00:33:33.435Z,59.97
2018-12-31T00:34:04.584Z,59.78
2018-12-31T00:34:35.737Z,59.57
2018-12-31T00:35:06.887Z,59.51
2018-12-31T00:35:38.038Z,59.45
2018-12-31T00:36:09.186Z,59.37
2018-12-31T00:36:40.347Z,59.27
2018-12-31T00:37:11.501Z,59.27
2018-12-31T00:37:42.689Z,59.31
2018-12-31T00:38:13.837Z,59.33
2018-12-31T00:38:45.001Z,59.33
2018-12-31T00:39:16.145Z,59.37
2018-12-31T00:39:47.301Z,59.40
2018-12-31T00:40:18.457Z,59.45
2018-12-31T00:40:49.646Z,59.50
2018-12-31T00:41:20.802Z,59.53
2018-12-31T00:41:51.959Z,59.56
2018-12-31T00:42:23.109Z,59.63
2018-12-31T00:42:59.038Z,59.78
2018-12-31T00:43:27.159Z,59.77
2018-12-31T00:43:58.317Z,59.75
2018-12-31T00:44:29.469Z,59.48
2018-12-31T00:45:00.624Z,59.68
2018-12-31T00:45:31.800Z,59.56
2018-12-31T00:46:02.990Z,59.64
2018-12-31T00:46:34.145Z,59.49
2018-12-31T00:47:05.316Z,59.34
2018-12-31T00:47:36.476Z,59.36
2018-12-31T00:48:07.633Z,59.36
2018-12-31T00:48:38.790Z,59.39
2018-12-31T00:49:09.934Z,59.42
2018-12-31T00:49:41.088Z,59.50
2018-12-31T00:50:12.259Z,60.16
2018-12-31T00:50:43.432Z,59.82
2018-12-31T00:51:14.580Z,59.53
2018-12-31T00:51:45.730Z,59.44
2018-12-31T00:52:16.884Z,59.68
2018-12-31T00:52:48.045Z,59.56
2018-12-31T00:53:19.204Z,59.47
2018-12-31T00:53:50.403Z,59.48
2018-12-31T00:54:21.553Z,59.62
2018-12-31T00:54:52.713Z,59.58
2018-12-31T00:55:23.864Z,59.60
2018-12-31T00:55:55.022Z,59.75
2018-12-31T00:56:26.176Z,59.67
2018-12-31T00:56:57.333Z,59.65
2018-12-31T00:57:28.505Z,59.71
2018-12-31T00:57:59.672Z,59.73
2018-12-31T00:58:30.838Z,59.80
2018-12-31T00:59:02.042Z,59.81
2018-12-31T00:59:33.198Z,59.81
2018-12-31T01:00:04.346Z,59.79
2018-12-31T01:00:35.498Z,59.81
2018-12-31T01:01:06.654Z,59.85
2018-12-31T01:01:37.815Z,59.89
2018-12-31T01:02:08.967Z,59.96
2018-12-31T01:02:40.136Z,60.05
2018-12-31T01:03:11.287Z,60.20
2018-12-31T01:03:42.436Z,60.31
2018-12-31T01:04:13.639Z,60.37
2018-12-31T01:04:44.798Z,60.46
2018-12-31T01:05:15.954Z,60.52
2018-12-31T01:05:47.109Z,60.51
2018-12-31T01:06:18.261Z,60.51
2018-12-31T01:06:49.428Z,60.57
2018-12-31T01:07:20.597Z,60.67
2018-12-31T01:07:52.629Z,60.75
2018-12-31T01:08:23.814Z,60.81
2018-12-31T01:08:54.987Z,60.82
2018-12-31T01:09:26.173Z,61.00
2018-12-31T01:09:57.341Z,61.23
2018-12-31T01:10:28.503Z,61.18
2018-12-31T01:10:59.660Z,61.30
2018-12-31T01:11:30.816Z,61.30
2018-12-31T01:12:02.019Z,61.38
2018-12-31T01:12:33.169Z,61.33
2018-12-31T01:13:05.865Z,61.26
2018-12-31T01:13:37.077Z,61.16
2018-12-31T01:14:08.227Z,61.00
2018-12-31T01:14:39.384Z,60.96
2018-12-31T01:15:10.529Z,61.16
2018-12-31T01:15:41.680Z,61.02
2018-12-31T01:16:12.836Z,61.29
2018-12-31T01:16:43.983Z,60.97
2018-12-31T01:17:15.137Z,60.51
2018-12-31T01:17:46.286Z,60.34
2018-12-31T01:18:17.447Z,60.39
2018-12-31T01:18:48.654Z,60.27
2018-12-31T01:19:19.811Z,60.28
2018-12-31T01:19:50.986Z,60.72
2018-12-31T01:20:22.141Z,60.80
2018-12-31T01:20:53.303Z,60.80
2018-12-31T01:21:24.455Z,60.36
2018-12-31T01:21:55.610Z,60.45
2018-12-31T01:22:26.764Z,60.31
2018-12-31T01:22:57.989Z,60.30
2018-12-31T01:23:29.142Z,60.42
2018-12-31T01:24:00.339Z,60.80
2018-12-31T01:24:31.496Z,60.79
2018-12-31T01:25:02.643Z,60.56
2018-12-31T01:25:33.801Z,60.34
2018-12-31T01:26:04.957Z,60.42
2018-12-31T01:26:37.303Z,60.54
2018-12-31T01:27:08.450Z,60.83
2018-12-31T01:27:39.599Z,61.15
2018-12-31T01:28:10.756Z,60.92
2018-12-31T01:28:41.902Z,60.61
2018-12-31T01:29:13.099Z,60.24
2018-12-31T01:29:44.253Z,60.05
2018-12-31T01:30:15.405Z,60.17
2018-12-31T01:30:46.567Z,60.50
2018-12-31T01:31:17.715Z,60.17
2018-12-31T01:31:48.859Z,60.60
2018-12-31T01:32:20.015Z,60.18
2018-12-31T01:32:51.206Z,60.30
2018-12-31T01:33:22.393Z,60.11
2018-12-31T01:33:53.543Z,60.25
2018-12-31T01:34:24.696Z,60.41
2018-12-31T01:34:55.893Z,60.62
2018-12-31T01:35:27.050Z,60.83
2018-12-31T01:35:58.202Z,60.77
2018-12-31T01:36:29.351Z,60.93
2018-12-31T01:37:00.502Z,61.11
2018-12-31T01:37:31.656Z,61.30
2018-12-31T01:38:02.855Z,61.65
2018-12-31T01:38:34.005Z,62.03
2018-12-31T01:39:05.159Z,62.31
2018-12-31T01:39:36.309Z,62.52
2018-12-31T01:40:07.459Z,62.86
2018-12-31T01:40:38.608Z,63.18
2018-12-31T01:41:09.773Z,63.49
2018-12-31T01:41:41.883Z,63.70
2018-12-31T01:42:13.123Z,63.93
2018-12-31T01:42:44.276Z,64.23
2018-12-31T01:43:15.432Z,64.15
2018-12-31T01:43:46.586Z,64.13
2018-12-31T01:44:17.739Z,64.21
2018-12-31T01:44:48.895Z,64.30
2018-12-31T01:45:20.090Z,64.37
2018-12-31T01:45:51.238Z,64.47
2018-12-31T01:46:22.454Z,64.53
2018-12-31T01:46:53.634Z,64.62
2018-12-31T01:47:24.793Z,64.76
2018-12-31T01:47:57.126Z,64.82
2018-12-31T01:48:28.281Z,64.98
2018-12-31T01:48:59.440Z,64.99
2018-12-31T01:49:30.652Z,65.17
2018-12-31T01:50:01.817Z,65.19
2018-12-31T01:50:32.962Z,65.02
2018-12-31T01:51:11.083Z,64.85
2018-12-31T01:51:36.982Z,64.82
2018-12-31T01:52:08.131Z,64.71
2018-12-31T01:52:39.283Z,64.71
2018-12-31T01:53:10.448Z,64.60
2018-12-31T01:53:41.603Z,64.55
2018-12-31T01:54:12.756Z,64.53
2018-12-31T01:54:43.966Z,64.41
2018-12-31T01:55:15.117Z,64.20
2018-12-31T01:55:46.272Z,64.09
2018-12-31T01:56:17.466Z,63.95
2018-12-31T01:56:48.617Z,63.74
2018-12-31T01:57:19.831Z,63.63
2018-12-31T01:57:50.976Z,63.54
2018-12-31T01:58:22.129Z,63.59
2018-12-31T01:58:53.284Z,63.61
2018-12-31T01:59:24.439Z,63.58
2018-12-31T01:59:55.592Z,63.47
2018-12-31T02:00:26.736Z,63.47
2018-12-31T02:00:57.892Z,63.53
2018-12-31T02:01:29.050Z,63.58
2018-12-31T02:02:00.214Z,63.60
2018-12-31T02:02:31.371Z,63.57
2018-12-31T02:03:02.566Z,63.55
2018-12-31T02:03:33.674Z,63.54
2018-12-31T02:04:04.831Z,63.49
2018-12-31T02:04:35.983Z,63.45
2018-12-31T02:05:07.592Z,63.43
2018-12-31T02:05:38.755Z,63.41
2018-12-31T02:06:09.914Z,63.43
2018-12-31T02:06:41.077Z,63.30
2018-12-31T02:07:12.232Z,63.30
2018-12-31T02:07:43.393Z,63.25
2018-12-31T02:08:14.545Z,63.17
2018-12-31T02:08:45.705Z,63.14
2018-12-31T02:09:16.863Z,63.11
2018-12-31T02:09:48.061Z,63.01
2018-12-31T02:10:19.221Z,62.91
2018-12-31T02:10:50.378Z,62.84
2018-12-31T02:11:21.525Z,62.79
2018-12-31T02:11:52.685Z,62.77
2018-12-31T02:12:23.899Z,63.02
2018-12-31T02:12:55.062Z,63.01
2018-12-31T02:13:26.250Z,62.64
2018-12-31T02:13:57.402Z,62.64
2018-12-31T02:14:28.564Z,62.62
2018-12-31T02:14:59.699Z,62.57
2018-12-31T02:15:30.934Z,62.43
2018-12-31T02:16:02.079Z,62.55
2018-12-31T02:16:33.231Z,62.64
2018-12-31T02:17:04.391Z,62.50
2018-12-31T02:17:35.586Z,62.50
2018-12-31T02:18:06.737Z,62.52
2018-12-31T02:18:37.892Z,62.59
2018-12-31T02:19:09.045Z,62.67
2018-12-31T02:19:40.219Z,62.61
2018-12-31T02:20:11.362Z,62.73
2018-12-31T02:20:42.507Z,62.76
2018-12-31T02:21:13.654Z,62.89
2018-12-31T02:21:44.851Z,62.91
2018-12-31T02:22:16.022Z,62.91
2018-12-31T02:22:47.172Z,62.82
2018-12-31T02:23:18.367Z,62.78
2018-12-31T02:23:49.519Z,62.83
2018-12-31T02:24:20.672Z,62.83
2018-12-31T02:24:51.826Z,62.74
2018-12-31T02:25:23.018Z,62.58
2018-12-31T02:25:54.169Z,62.57
2018-12-31T02:26:25.319Z,62.55
2018-12-31T02:26:56.463Z,62.54
2018-12-31T02:27:27.635Z,62.46
2018-12-31T02:27:58.784Z,62.53
2018-12-31T02:28:29.949Z,62.47
2018-12-31T02:29:01.204Z,62.41
2018-12-31T02:29:32.362Z,62.40
2018-12-31T02:30:03.529Z,62.42
2018-12-31T02:30:34.670Z,62.40
2018-12-31T02:31:05.834Z,62.37
2018-12-31T02:31:36.980Z,62.40
2018-12-31T02:32:08.139Z,62.42
2018-12-31T02:32:39.313Z,62.26
2018-12-31T02:33:10.508Z,62.22
2018-12-31T02:33:41.666Z,62.18
2018-12-31T02:34:12.836Z,62.18
2018-12-31T02:34:43.969Z,62.14
2018-12-31T02:35:15.129Z,61.90
2018-12-31T02:35:46.279Z,62.02
2018-12-31T02:36:17.436Z,62.01
2018-12-31T02:36:48.592Z,61.94
2018-12-31T02:37:19.790Z,61.78
2018-12-31T02:37:50.951Z,61.83
2018-12-31T02:38:22.091Z,61.83
2018-12-31T02:38:53.232Z,61.91
2018-12-31T02:39:24.387Z,61.96
2018-12-31T02:39:55.543Z,61.95
2018-12-31T02:40:26.701Z,61.96
2018-12-31T02:40:57.852Z,62.00
2018-12-31T02:41:29.014Z,62.01
2018-12-31T02:42:00.172Z,61.99
2018-12-31T02:42:31.374Z,61.95
2018-12-31T02:43:02.514Z,61.90
2018-12-31T02:43:33.694Z,61.88
2018-12-31T02:44:04.819Z,61.82
2018-12-31T02:44:35.977Z,61.83
2018-12-31T02:45:07.179Z,61.82
2018-12-31T02:45:38.342Z,61.92
2018-12-31T02:46:09.489Z,62.04
2018-12-31T02:46:40.677Z,62.10
2018-12-31T02:47:11.831Z,62.10
2018-12-31T02:47:42.988Z,62.15
2018-12-31T02:48:14.151Z,62.64
2018-12-31T02:48:45.307Z,62.62
2018-12-31T02:49:16.458Z,62.48
2018-12-31T02:49:47.658Z,62.33
2018-12-31T02:50:18.810Z,62.37
2018-12-31T02:50:49.962Z,62.31
2018-12-31T02:51:21.117Z,62.39
2018-12-31T02:51:52.266Z,62.22
2018-12-31T02:52:23.462Z,61.98
2018-12-31T02:52:54.622Z,61.97
2018-12-31T02:53:25.770Z,61.82
2018-12-31T02:53:56.924Z,62.12
2018-12-31T02:54:28.136Z,62.50
2018-12-31T02:54:59.317Z,61.74
2018-12-31T02:55:30.455Z,61.41
2018-12-31T02:56:01.607Z,61.32
2018-12-31T02:56:32.840Z,61.41
2018-12-31T02:57:03.969Z,61.44
2018-12-31T02:57:35.127Z,61.35
2018-12-31T02:58:06.283Z,61.81
2018-12-31T02:58:37.436Z,61.67
2018-12-31T02:59:08.589Z,61.79
2018-12-31T02:59:39.798Z,61.60
2018-12-31T03:00:10.946Z,61.50
2018-12-31T03:00:42.109Z,61.39
2018-12-31T03:01:13.258Z,61.29
2018-12-31T03:01:44.409Z,61.44
2018-12-31T03:02:15.562Z,61.48
2018-12-31T03:02:46.706Z,61.70
2018-12-31T03:03:17.865Z,61.93
2018-12-31T03:03:49.032Z,61.95
2018-12-31T03:04:20.227Z,61.97
2018-12-31T03:04:51.401Z,61.81
2018-12-31T03:05:22.599Z,61.86
2018-12-31T03:05:53.756Z,61.88
2018-12-31T03:06:24.919Z,62.05
2018-12-31T03:06:56.071Z,62.05
2018-12-31T03:07:27.270Z,62.06
2018-12-31T03:07:58.413Z,62.25
2018-12-31T03:08:29.566Z,62.57
2018-12-31T03:09:00.711Z,62.71
2018-12-31T03:09:31.872Z,62.87
2018-12-31T03:10:03.034Z,62.94
2018-12-31T03:10:34.190Z,63.03
2018-12-31T03:11:05.339Z,63.33
2018-12-31T03:11:36.499Z,63.83
2018-12-31T03:12:07.652Z,63.90
2018-12-31T03:12:38.840Z,63.81
2018-12-31T03:13:09.995Z,63.72
2018-12-31T03:13:41.164Z,63.91
2018-12-31T03:14:12.318Z,64.04
2018-12-31T03:14:43.461Z,64.02
2018-12-31T03:15:14.617Z,63.77
2018-12-31T03:15:45.773Z,63.90
2018-12-31T03:16:18.889Z,63.81
2018-12-31T03:16:50.007Z,64.00
2018-12-31T03:17:21.163Z,64.21
2018-12-31T03:17:52.314Z,64.08
2018-12-31T03:18:23.470Z,63.96
2018-12-31T03:18:54.679Z,63.99
2018-12-31T03:19:25.822Z,64.16
2018-12-31T03:19:56.969Z,64.28
2018-12-31T03:20:28.117Z,64.60
2018-12-31T03:20:59.275Z,64.81
2018-12-31T03:21:30.434Z,65.02
2018-12-31T03:22:01.580Z,65.04
2018-12-31T03:22:32.735Z,65.10
2018-12-31T03:23:05.982Z,65.02
2018-12-31T03:23:37.141Z,65.04
2018-12-31T03:24:08.325Z,65.02
2018-12-31T03:24:39.467Z,65.01
2018-12-31T03:25:10.653Z,64.95
2018-12-31T03:25:41.850Z,64.95
2018-12-31T03:26:12.999Z,65.11
2018-12-31T03:26:44.155Z,65.36
2018-12-31T03:27:15.311Z,65.74
2018-12-31T03:27:46.459Z,65.94
2018-12-31T03:28:17.613Z,66.12
2018-12-31T03:28:48.760Z,66.22
2018-12-31T03:29:19.952Z,66.16
2018-12-31T03:29:51.107Z,66.19
2018-12-31T03:30:22.274Z,66.14
2018-12-31T03:30:53.412Z,66.22
2018-12-31T03:31:24.723Z,66.37
2018-12-31T03:31:55.949Z,66.35
2018-12-31T03:32:27.122Z,66.23
2018-12-31T03:32:58.262Z,65.87
2018-12-31T03:33:29.418Z,65.70
2018-12-31T03:34:00.578Z,65.71
2018-12-31T03:34:31.753Z,65.51
2018-12-31T03:35:02.886Z,65.39
2018-12-31T03:35:34.044Z,65.41
2018-12-31T03:36:05.179Z,65.52
2018-12-31T03:36:36.349Z,65.62
2018-12-31T03:37:07.507Z,65.71
2018-12-31T03:37:38.660Z,65.70
2018-12-31T03:38:09.862Z,65.63
2018-12-31T03:38:41.022Z,65.41
2018-12-31T03:39:12.174Z,65.46
2018-12-31T03:39:43.321Z,65.46
2018-12-31T03:40:14.477Z,65.47
2018-12-31T03:40:45.627Z,65.46
2018-12-31T03:41:16.827Z,65.41
2018-12-31T03:41:48.002Z,65.54
2018-12-31T03:42:19.147Z,65.36
2018-12-31T03:42:50.307Z,65.20
2018-12-31T03:43:21.510Z,65.13
2018-12-31T03:43:52.658Z,65.15
2018-12-31T03:44:23.807Z,65.15
2018-12-31T03:44:55.004Z,65.18
2018-12-31T03:45:26.154Z,65.19
2018-12-31T03:45:57.311Z,65.18
2018-12-31T03:46:28.481Z,65.09
2018-12-31T03:46:59.640Z,64.86
2018-12-31T03:47:30.790Z,64.79
2018-12-31T03:48:01.992Z,64.77
2018-12-31T03:48:33.157Z,64.86
2018-12-31T03:49:04.297Z,64.85
2018-12-31T03:49:35.467Z,64.89
2018-12-31T03:50:06.621Z,64.88
2018-12-31T03:50:37.777Z,64.89
2018-12-31T03:51:08.936Z,64.91
2018-12-31T03:51:40.086Z,64.96
2018-12-31T03:52:11.275Z,65.02
2018-12-31T03:52:42.463Z,65.09
2018-12-31T03:53:13.623Z,65.12
2018-12-31T03:53:44.783Z,65.16
2018-12-31T03:54:15.959Z,65.12
2018-12-31T03:54:47.129Z,65.11
2018-12-31T03:55:18.307Z,65.02
2018-12-31T03:55:49.529Z,64.91
2018-12-31T03:56:20.696Z,64.83
2018-12-31T03:56:51.861Z,64.81
2018-12-31T03:57:23.008Z,64.76
2018-12-31T03:57:54.215Z,64.70
2018-12-31T03:58:25.422Z,64.67
2018-12-31T03:58:56.572Z,64.67
2018-12-31T03:59:27.745Z,64.68
2018-12-31T03:59:58.979Z,64.63
2018-12-31T04:00:30.120Z,64.58
2018-12-31T04:01:01.262Z,64.53
2018-12-31T04:01:32.422Z,64.48
2018-12-31T04:02:03.579Z,64.60
2018-12-31T04:02:34.728Z,64.73
2018-12-31T04:03:05.880Z,64.75
2018-12-31T04:03:37.037Z,64.68
2018-12-31T04:04:08.192Z,64.58
2018-12-31T04:04:39.339Z,64.48
2018-12-31T04:05:10.488Z,64.48
2018-12-31T04:05:41.700Z,64.35
2018-12-31T04:06:12.863Z,64.29
2018-12-31T04:06:44.029Z,64.29
2018-12-31T04:07:15.182Z,64.22
2018-12-31T04:07:52.979Z,64.34
2018-12-31T04:08:19.212Z,64.47
2018-12-31T04:08:50.361Z,64.49
2018-12-31T04:09:21.511Z,64.42
2018-12-31T04:09:52.669Z,64.39
2018-12-31T04:10:23.823Z,64.36
2018-12-31T04:10:55.023Z,64.40
2018-12-31T04:11:26.181Z,64.39
2018-12-31T04:11:57.320Z,64.41
2018-12-31T04:12:28.495Z,64.40
2018-12-31T04:12:59.655Z,64.37
2018-12-31T04:13:30.805Z,64.37
2018-12-31T04:14:01.976Z,64.34
2018-12-31T04:14:33.123Z,64.34
2018-12-31T04:15:04.325Z,64.23
2018-12-31T04:15:35.478Z,64.15
2018-12-31T04:16:06.636Z,64.11
2018-12-31T04:16:37.789Z,64.13
2018-12-31T04:17:08.948Z,64.05
2018-12-31T04:17:40.103Z,64.11
2018-12-31T04:18:11.266Z,64.20
2018-12-31T04:18:42.441Z,64.15
2018-12-31T04:19:13.594Z,64.23
2018-12-31T04:19:44.752Z,64.24
2018-12-31T04:20:15.942Z,64.98
2018-12-31T04:20:47.092Z,64.95
2018-12-31T04:21:18.257Z,64.75
2018-12-31T04:21:49.426Z,64.46
2018-12-31T04:22:20.647Z,64.41
2018-12-31T04:22:51.811Z,64.21
2018-12-31T04:23:22.967Z,64.15
2018-12-31T04:23:54.114Z,64.19
2018-12-31T04:24:25.269Z,64.23
2018-12-31T04:24:56.465Z,64.28
2018-12-31T04:25:27.619Z,64.82
2018-12-31T04:25:58.773Z,64.52
2018-12-31T04:26:29.916Z,64.34
2018-12-31T04:27:01.074Z,64.23
2018-12-31T04:27:32.246Z,64.35
2018-12-31T04:28:03.385Z,64.48
2018-12-31T04:28:34.529Z,64.72
2018-12-31T04:29:05.683Z,64.84
2018-12-31T04:29:36.902Z,64.81
2018-12-31T04:30:08.121Z,64.70
2018-12-31T04:30:39.274Z,64.53
2018-12-31T04:31:10.421Z,64.48
2018-12-31T04:31:41.570Z,64.36
2018-12-31T04:32:12.728Z,64.52
2018-12-31T04:32:43.887Z,64.84
2018-12-31T04:33:15.039Z,64.78
2018-12-31T04:33:46.184Z,64.64
2018-12-31T04:34:17.344Z,64.81
2018-12-31T04:34:48.568Z,64.97
2018-12-31T04:35:19.727Z,65.04
2018-12-31T04:35:50.888Z,65.39
2018-12-31T04:36:22.037Z,65.65
2018-12-31T04:36:53.192Z,65.82
2018-12-31T04:37:24.400Z,66.10
2018-12-31T04:37:55.553Z,66.21
2018-12-31T04:38:26.741Z,66.53
2018-12-31T04:38:57.899Z,66.74
2018-12-31T04:39:29.056Z,66.90
2018-12-31T04:40:00.322Z,67.11
2018-12-31T04:40:31.488Z,67.53
2018-12-31T04:41:02.644Z,67.43
2018-12-31T04:41:33.796Z,66.89
2018-12-31T04:42:04.956Z,66.61
2018-12-31T04:42:36.166Z,66.43
2018-12-31T04:43:07.322Z,66.31
2018-12-31T04:43:38.470Z,66.18
2018-12-31T04:44:09.694Z,66.00
2018-12-31T04:44:40.835Z,65.98
2018-12-31T04:45:11.992Z,65.89
2018-12-31T04:45:43.154Z,65.82
2018-12-31T04:46:14.314Z,65.98
2018-12-31T04:46:45.460Z,66.08
2018-12-31T04:47:16.621Z,66.17
2018-12-31T04:47:47.838Z,66.35
2018-12-31T04:48:18.989Z,66.35
2018-12-31T04:48:50.143Z,66.64
2018-12-31T04:49:21.310Z,66.95
2018-12-31T04:49:52.466Z,67.11
2018-12-31T04:50:23.624Z,67.44
2018-12-31T04:50:54.782Z,67.61
2018-12-31T04:51:25.931Z,67.84
2018-12-31T04:51:57.088Z,67.93
2018-12-31T04:52:28.292Z,67.78
2018-12-31T04:52:59.446Z,67.77
2018-12-31T04:53:30.594Z,67.90
2018-12-31T04:54:01.743Z,67.94
2018-12-31T04:54:32.899Z,67.87
2018-12-31T04:55:04.049Z,67.79
2018-12-31T04:55:35.202Z,67.72
2018-12-31T04:56:06.358Z,67.88
2018-12-31T04:56:37.548Z,67.76
2018-12-31T04:57:08.694Z,67.58
2018-12-31T04:57:39.857Z,67.38
2018-12-31T04:58:11.057Z,67.30
2018-12-31T04:58:42.217Z,67.23
2018-12-31T04:59:13.376Z,67.20
2018-12-31T04:59:44.532Z,67.12
2018-12-31T05:00:15.686Z,67.02
2018-12-31T05:00:46.893Z,66.87
2018-12-31T05:01:18.057Z,66.73
2018-12-31T05:01:49.218Z,66.62
2018-12-31T05:02:20.405Z,66.53
2018-12-31T05:02:51.560Z,66.43
2018-12-31T05:03:22.765Z,66.30
2018-12-31T05:03:53.908Z,66.18
2018-12-31T05:04:25.113Z,66.19
2018-12-31T05:04:56.255Z,66.13
2018-12-31T05:05:27.407Z,65.99
2018-12-31T05:05:58.552Z,66.07
2018-12-31T05:06:29.704Z,65.99
2018-12-31T05:07:01.123Z,66.04
2018-12-31T05:07:32.278Z,66.12
2018-12-31T05:08:03.429Z,66.10
2018-12-31T05:08:34.658Z,66.02
2018-12-31T05:09:05.814Z,65.91
2018-12-31T05:09:36.977Z,66.17
2018-12-31T05:10:08.132Z,66.20
2018-12-31T05:10:39.287Z,66.16
2018-12-31T05:11:10.442Z,66.22
2018-12-31T05:11:41.590Z,66.56
2018-12-31T05:12:14.782Z,66.49
2018-12-31T05:12:45.681Z,66.58
2018-12-31T05:13:16.883Z,66.83
2018-12-31T05:13:48.037Z,67.21
2018-12-31T05:14:19.189Z,67.41
2018-12-31T05:14:50.352Z,67.67
2018-12-31T05:15:21.503Z,67.90
2018-12-31T05:15:52.677Z,67.79
2018-12-31T05:16:23.825Z,67.75
2018-12-31T05:16:54.970Z,67.79
2018-12-31T05:17:26.114Z,67.85
2018-12-31T05:17:57.258Z,67.70
2018-12-31T05:18:28.456Z,67.73
2018-12-31T05:18:59.605Z,67.79
2018-12-31T05:19:30.754Z,67.67
2018-12-31T05:20:01.908Z,67.50
2018-12-31T05:20:33.055Z,67.45
2018-12-31T05:21:04.214Z,67.39
2018-12-31T05:21:35.370Z,67.39
2018-12-31T05:22:06.527Z,67.28
2018-12-31T05:22:37.676Z,67.15
2018-12-31T05:23:08.827Z,67.03
2018-12-31T05:23:40.032Z,66.98
2018-12-31T05:24:11.185Z,66.98
2018-12-31T05:24:42.345Z,66.95
2018-12-31T05:25:13.528Z,66.88
2018-12-31T05:25:46.082Z,66.86
2018-12-31T05:26:17.266Z,66.97
2018-12-31T05:26:48.420Z,66.98
2018-12-31T05:27:19.575Z,67.15
2018-12-31T05:27:50.731Z,67.27
2018-12-31T05:28:21.916Z,67.34
2018-12-31T05:28:53.073Z,67.10
2018-12-31T05:29:24.224Z,67.04
2018-12-31T05:29:55.385Z,67.06
2018-12-31T05:30:26.549Z,67.17
2018-12-31T05:30:57.697Z,67.17
2018-12-31T05:31:28.850Z,66.98
2018-12-31T05:32:00.026Z,66.96
2018-12-31T05:32:34.165Z,66.98
2018-12-31T05:33:05.617Z,67.12
2018-12-31T05:33:36.784Z,67.16
2018-12-31T05:34:07.991Z,67.18
2018-12-31T05:34:39.134Z,67.15
2018-12-31T05:35:10.289Z,67.11
2018-12-31T05:35:41.443Z,66.99
2018-12-31T05:36:12.634Z,66.95
2018-12-31T05:36:43.789Z,66.90
2018-12-31T05:37:14.937Z,66.89
2018-12-31T05:37:46.092Z,66.80
2018-12-31T05:38:17.249Z,66.72
2018-12-31T05:38:48.407Z,66.72
2018-12-31T05:39:19.610Z,66.74
2018-12-31T05:39:50.759Z,66.68
2018-12-31T05:40:21.933Z,66.55
2018-12-31T05:40:53.083Z,66.44
2018-12-31T05:41:24.248Z,66.32
2018-12-31T05:41:55.407Z,66.27
2018-12-31T05:42:26.574Z,66.21
2018-12-31T05:42:57.723Z,66.22
2018-12-31T05:43:28.879Z,66.21
2018-12-31T05:44:00.024Z,66.23
2018-12-31T05:44:31.242Z,66.23
2018-12-31T05:45:02.361Z,66.22
2018-12-31T05:45:33.515Z,66.24
2018-12-31T05:46:04.677Z,66.25
2018-12-31T05:46:35.837Z,66.19
2018-12-31T05:47:07.006Z,66.19
2018-12-31T05:47:38.203Z,66.28
2018-12-31T05:48:09.355Z,66.35
2018-12-31T05:48:40.563Z,66.34
2018-12-31T05:49:11.708Z,66.23
2018-12-31T05:49:42.891Z,66.12
2018-12-31T05:50:14.099Z,66.10
2018-12-31T05:50:46.716Z,66.13
2018-12-31T05:51:18.930Z,66.11
2018-12-31T05:51:50.124Z,66.08
2018-12-31T05:52:21.284Z,66.10
2018-12-31T05:52:52.434Z,66.10
2018-12-31T05:53:23.408Z,66.09
2018-12-31T05:53:54.578Z,66.08
2018-12-31T05:54:25.736Z,66.06
2018-12-31T05:54:56.905Z,66.09
2018-12-31T05:55:28.067Z,66.15
2018-12-31T05:55:59.217Z,66.10
2018-12-31T05:56:30.414Z,66.15
2018-12-31T05:57:01.566Z,66.15
2018-12-31T05:57:32.722Z,66.07
2018-12-31T05:58:03.926Z,66.08
2018-12-31T05:58:35.071Z,66.08
2018-12-31T05:59:08.348Z,66.09
2018-12-31T05:59:39.519Z,66.10
2018-12-31T06:00:10.656Z,66.24
2018-12-31T06:00:42.214Z,66.30
2018-12-31T06:01:13.352Z,66.32
2018-12-31T06:01:44.549Z,66.30
2018-12-31T06:02:15.702Z,66.35
2018-12-31T06:02:46.860Z,66.44
2018-12-31T06:03:18.011Z,66.48
2018-12-31T06:03:49.168Z,66.34
2018-12-31T06:04:20.377Z,66.25
2018-12-31T06:04:51.560Z,66.21
2018-12-31T06:05:22.769Z,66.24
2018-12-31T06:05:54.337Z,66.24
2018-12-31T06:06:25.508Z,66.37
2018-12-31T06:06:56.663Z,66.51
2018-12-31T06:07:27.824Z,66.51
2018-12-31T06:07:58.977Z,66.60
2018-12-31T06:08:30.182Z,66.71
2018-12-31T06:09:01.328Z,66.68
2018-12-31T06:09:32.495Z,66.60
2018-12-31T06:10:03.654Z,66.54
2018-12-31T06:10:34.895Z,66.50
2018-12-31T06:11:06.042Z,66.42
2018-12-31T06:11:37.196Z,66.33
2018-12-31T06:12:08.349Z,66.29
2018-12-31T06:12:39.517Z,66.26
2018-12-31T06:13:10.673Z,66.28
2018-12-31T06:13:41.840Z,66.33
2018-12-31T06:14:13.000Z,66.43
2018-12-31T06:14:44.172Z,66.49
2018-12-31T06:15:15.319Z,66.42
2018-12-31T06:15:46.517Z,66.36
2018-12-31T06:16:17.675Z,66.36
2018-12-31T06:16:48.838Z,66.25
2018-12-31T06:17:19.985Z,66.20
2018-12-31T06:17:51.142Z,66.09
2018-12-31T06:18:22.297Z,66.03
2018-12-31T06:18:53.457Z,66.08
2018-12-31T06:19:24.687Z,66.04
2018-12-31T06:19:55.931Z,66.02
2018-12-31T06:20:27.067Z,65.99
2018-12-31T06:20:58.212Z,66.05
2018-12-31T06:21:29.398Z,66.05
2018-12-31T06:22:00.533Z,66.05
2018-12-31T06:22:31.679Z,66.03
2018-12-31T06:23:02.831Z,66.06
2018-12-31T06:23:33.989Z,65.94
2018-12-31T06:24:05.145Z,65.91
2018-12-31T06:24:36.363Z,65.80
2018-12-31T06:25:07.505Z,65.75
2018-12-31T06:25:38.686Z,65.76
2018-12-31T06:26:09.840Z,65.73
2018-12-31T06:26:40.989Z,65.60
2018-12-31T06:27:12.195Z,65.58
2018-12-31T06:27:43.352Z,65.50
2018-12-31T06:28:14.555Z,65.36
2018-12-31T06:28:45.718Z,65.27
2018-12-31T06:29:16.870Z,65.22
2018-12-31T06:29:48.027Z,65.16
2018-12-31T06:30:19.180Z,65.15
2018-12-31T06:30:50.332Z,65.13
2018-12-31T06:31:21.502Z,65.12
2018-12-31T06:31:52.643Z,65.14
2018-12-31T06:32:23.796Z,65.35
2018-12-31T06:32:54.975Z,65.38
2018-12-31T06:33:26.168Z,65.39
2018-12-31T06:33:57.319Z,65.38
2018-12-31T06:34:28.476Z,65.29
2018-12-31T06:34:59.628Z,65.24
2018-12-31T06:35:30.780Z,65.18
2018-12-31T06:36:01.927Z,65.09
2018-12-31T06:36:33.083Z,64.96
2018-12-31T06:37:04.253Z,64.91
2018-12-31T06:37:35.407Z,64.89
2018-12-31T06:38:06.563Z,64.88
2018-12-31T06:38:37.769Z,64.87
2018-12-31T06:39:08.919Z,64.85
2018-12-31T06:39:40.063Z,64.84
2018-12-31T06:40:11.210Z,64.89
2018-12-31T06:40:42.361Z,64.92
2018-12-31T06:41:13.603Z,64.81
2018-12-31T06:41:44.722Z,64.71